Downpatrick, United Kingdom
Current Conditions -  °F | °C
As of 9:20 PM on Monday 24 Nov 2014 (Local Time) from EGAC Reporting Station
Broken Clouds Broken Clouds  
Wind Chill: 41°   Ceiling: 1700
Heat Index: 45°   Visibility: 5mi
Dew Point: 43°   Wind: 7mph
Humidity: 93%   Direction: 200°SSW
Pressure: 30.27"   Gusts: NA
Location:  54.33°N, 5.7°W
Report Text: EGAC 242120Z 20006KT 8000 FEW010 SCT014 BKN017 07/06 Q1025
Loading
Personal Weather Stations






























Interactive Weather Map New forecast layout! Learn more

10-Day Weather Forecast

Advertisements
Track Severe Weather on mobile